Time;durP1;ratioP1;P1;durP2;ratioP2;P2;SDS_P1;SDS_P2;PMS_P1;PMS_P2;Temp;Humidity;BMP_temperature;BMP_pressure;BME280_temperature;BME280_humidity;BME280_pressure;Samples;Min_cycle;Max_cycle;Signal;HPM_P1;HPM_P2
2021/12/06 00:00:31;;;;;;;19.38;13.90;;;6.00;87.40;;;;;;5094067;28;20043;-78
2021/12/06 00:03:00;;;;;;;17.98;12.98;;;6.00;87.50;;;;;;5093886;28;20475;-78
2021/12/06 00:05:27;;;;;;;20.38;13.52;;;6.00;87.50;;;;;;5092574;28;20044;-78
2021/12/06 00:07:53;;;;;;;20.35;13.50;;;6.00;87.60;;;;;;5093657;28;20404;-78
2021/12/06 00:10:19;;;;;;;21.08;14.27;;;6.00;87.70;;;;;;5092396;28;20024;-78
2021/12/06 00:12:45;;;;;;;18.73;14.00;;;5.90;87.70;;;;;;5092394;28;20027;-78
2021/12/06 00:15:11;;;;;;;20.02;13.27;;;5.90;87.70;;;;;;5093534;28;20024;-77
2021/12/06 00:17:38;;;;;;;19.25;14.07;;;5.90;87.80;;;;;;5092204;28;20032;-78
2021/12/06 00:20:07;;;;;;;20.83;14.93;;;5.90;87.80;;;;;;5092321;28;20024;-77
2021/12/06 00:22:33;;;;;;;22.05;14.45;;;5.90;87.80;;;;;;5092314;28;20038;-78
2021/12/06 00:24:59;;;;;;;23.05;14.45;;;5.80;87.80;;;;;;5092594;28;20032;-78
2021/12/06 00:27:25;;;;;;;24.52;15.43;;;5.80;87.80;;;;;;5093333;28;20059;-78
2021/12/06 00:29:51;;;;;;;20.42;14.63;;;5.80;87.90;;;;;;5093505;28;20024;-78
2021/12/06 00:32:17;;;;;;;22.15;14.30;;;5.80;88.00;;;;;;5092827;28;20024;-78
2021/12/06 00:34:43;;;;;;;22.27;14.55;;;5.80;88.00;;;;;;5092031;28;20035;-78
2021/12/06 00:37:28;;;;;;;19.27;13.77;;;5.80;88.10;;;;;;5092021;28;20051;-78
2021/12/06 00:39:58;;;;;;;19.60;13.80;;;5.80;88.20;;;;;;5092205;28;20089;-78
2021/12/06 00:42:27;;;;;;;20.48;13.73;;;5.80;88.20;;;;;;5093582;28;20020;-79
2021/12/06 00:44:53;;;;;;;19.10;13.88;;;5.80;88.30;;;;;;5093473;28;20024;-79
2021/12/06 00:47:19;;;;;;;19.00;13.27;;;5.80;88.20;;;;;;5093279;28;20503;-78
2021/12/06 00:49:46;;;;;;;21.17;13.80;;;5.80;88.30;;;;;;5092176;28;20016;-79
2021/12/06 00:52:14;;;;;;;19.75;14.05;;;5.90;88.30;;;;;;5093542;28;20016;-79
2021/12/06 00:54:39;;;;;;;19.77;14.23;;;5.90;88.30;;;;;;5092148;28;20020;-79
2021/12/06 00:57:07;;;;;;;22.73;14.60;;;5.90;88.30;;;;;;5091820;28;20028;-79
2021/12/06 00:59:34;;;;;;;19.67;13.73;;;6.00;88.30;;;;;;5093096;28;20031;-79
2021/12/06 01:02:00;;;;;;;20.52;14.00;;;6.00;88.20;;;;;;5092989;28;20472;-79
2021/12/06 01:04:28;;;;;;;25.17;14.68;;;6.00;88.20;;;;;;5091736;28;20123;-78
2021/12/06 01:06:54;;;;;;;21.58;13.40;;;6.00;88.20;;;;;;5091500;28;20073;-78
2021/12/06 01:09:19;;;;;;;23.42;13.90;;;6.10;88.30;;;;;;5091555;28;20442;-79
2021/12/06 01:11:45;;;;;;;21.70;14.32;;;6.10;88.80;;;;;;5091594;28;20383;-79
2021/12/06 01:14:11;;;;;;;21.58;14.48;;;6.10;88.20;;;;;;5092970;28;20028;-79
2021/12/06 01:16:36;;;;;;;22.33;15.23;;;6.10;88.20;;;;;;5091590;28;20073;-79
2021/12/06 01:19:02;;;;;;;24.17;15.48;;;6.00;88.20;;;;;;5091413;28;20025;-78
2021/12/06 01:21:58;;;;;;;24.30;15.00;;;6.00;88.20;;;;;;5091380;28;20024;-78
2021/12/06 01:24:18;;;;;;;25.13;15.93;;;6.10;88.30;;;;;;5092660;28;20145;-78
2021/12/06 01:39:38;;;;;;;26.55;17.35;;;6.00;88.40;;;;;;5092701;28;20043;-78
2021/12/06 01:42:06;;;;;;;30.92;17.48;;;6.00;88.30;;;;;;5091170;28;20020;-78
2021/12/06 01:44:38;;;;;;;28.20;17.55;;;6.00;88.30;;;;;;5094340;28;20391;-78
2021/12/06 01:47:05;;;;;;;26.17;16.30;;;6.00;88.40;;;;;;5094958;28;20020;-78
2021/12/06 01:49:36;;;;;;;28.88;16.85;;;6.00;88.50;;;;;;5096325;28;20364;-78
2021/12/06 01:52:07;;;;;;;30.88;16.92;;;6.00;88.60;;;;;;5094883;28;20020;-78
2021/12/06 01:54:32;;;;;;;28.08;15.68;;;6.10;88.50;;;;;;5094941;28;20020;-78
2021/12/06 01:56:58;;;;;;;29.55;17.25;;;6.10;88.50;;;;;;5094823;28;20073;-79
2021/12/06 01:59:25;;;;;;;27.25;16.80;;;6.10;88.60;;;;;;5096204;28;20384;-78
2021/12/06 02:01:52;;;;;;;27.85;17.40;;;6.10;88.60;;;;;;5096286;28;20099;-79
2021/12/06 02:04:18;;;;;;;28.25;17.65;;;6.10;88.40;;;;;;5094823;28;20153;-79
2021/12/06 02:06:46;;;;;;;33.15;17.45;;;6.10;88.40;;;;;;5094586;28;20020;-78
2021/12/06 02:09:16;;;;;;;28.10;18.27;;;6.00;88.40;;;;;;5094498;28;20036;-78
2021/12/06 02:11:43;;;;;;;30.48;17.30;;;6.00;88.50;;;;;;5094598;28;20420;-78
2021/12/06 02:14:25;;;;;;;29.35;16.95;;;6.10;88.60;;;;;;5094570;28;20093;-78
2021/12/06 02:17:05;;;;;;;30.52;16.73;;;6.10;88.50;;;;;;5095731;28;20032;-78
2021/12/06 02:19:35;;;;;;;30.88;17.45;;;6.10;88.40;;;;;;5094456;28;20104;-78
2021/12/06 02:22:02;;;;;;;29.88;17.58;;;6.10;88.50;;;;;;5094475;28;20032;-78
2021/12/06 02:24:31;;;;;;;29.92;16.85;;;6.10;88.40;;;;;;5094719;28;20392;-79
2021/12/06 02:26:57;;;;;;;29.15;16.92;;;6.20;89.10;;;;;;5094692;28;20028;-78
2021/12/06 02:29:23;;;;;;;30.42;17.80;;;6.20;88.50;;;;;;5095854;28;20047;-78
2021/12/06 02:31:49;;;;;;;29.17;18.20;;;6.20;88.40;;;;;;5094348;28;20020;-78
2021/12/06 02:34:15;;;;;;;31.85;18.15;;;6.20;88.30;;;;;;5095584;28;20031;-78
2021/12/06 02:36:42;;;;;;;30.65;17.80;;;6.20;88.30;;;;;;5095603;28;20448;-78
2021/12/06 02:39:10;;;;;;;28.30;17.67;;;6.20;88.30;;;;;;5094341;28;20031;-79
2021/12/06 02:41:36;;;;;;;29.85;18.23;;;6.20;88.30;;;;;;5094000;28;20024;-78
2021/12/06 02:44:03;;;;;;;34.95;17.55;;;6.30;88.40;;;;;;5094092;28;20051;-78
2021/12/06 02:46:28;;;;;;;28.17;17.27;;;6.30;88.40;;;;;;5093978;28;20028;-78
2021/12/06 02:48:54;;;;;;;31.45;18.05;;;6.30;88.40;;;;;;5093813;28;20167;-78
2021/12/06 02:51:26;;;;;;;32.60;17.55;;;6.30;88.30;;;;;;5093951;28;20444;-78
2021/12/06 02:53:52;;;;;;;28.80;17.13;;;6.30;88.20;;;;;;5093846;28;20031;-78
2021/12/06 02:59:08;;;;;;;29.08;17.33;;;6.30;88.30;;;;;;5104249;28;20057;-78
2021/12/06 03:01:41;;;;;;;30.65;17.55;;;6.30;88.20;;;;;;5095028;28;20535;-78
2021/12/06 03:04:08;;;;;;;30.45;17.55;;;6.40;88.30;;;;;;5094959;28;20020;-77
2021/12/06 03:06:35;;;;;;;30.38;17.70;;;6.40;88.20;;;;;;5093550;28;20025;-77
2021/12/06 03:09:07;;;;;;;31.50;18.08;;;6.40;88.20;;;;;;5094770;28;20036;-77
2021/12/06 03:11:41;;;;;;;31.00;17.50;;;6.40;88.20;;;;;;5094846;28;20027;-78
2021/12/06 03:14:12;;;;;;;28.17;16.52;;;6.30;88.20;;;;;;5093449;28;20024;-78
2021/12/06 03:16:38;;;;;;;31.30;17.75;;;6.30;88.20;;;;;;5094699;28;20027;-77
2021/12/06 03:19:05;;;;;;;33.63;18.73;;;6.30;88.20;;;;;;5093346;28;20028;-78
2021/12/06 03:21:31;;;;;;;29.92;17.67;;;6.40;88.20;;;;;;5094427;28;20134;-77
2021/12/06 03:23:58;;;;;;;31.35;18.75;;;6.40;88.30;;;;;;5093209;28;20020;-78
2021/12/06 03:26:24;;;;;;;34.45;19.02;;;6.40;88.20;;;;;;5094576;28;20094;-78
2021/12/06 03:28:51;;;;;;;33.85;18.75;;;6.40;88.20;;;;;;5094433;28;20502;-78
2021/12/06 03:31:18;;;;;;;31.17;18.65;;;6.40;88.10;;;;;;5093221;28;20020;-78
2021/12/06 03:33:46;;;;;;;31.52;17.85;;;6.40;88.20;;;;;;5093049;28;20487;-78
2021/12/06 03:36:12;;;;;;;30.85;18.10;;;6.40;88.10;;;;;;5094322;28;20021;-77
2021/12/06 03:38:39;;;;;;;33.67;19.92;;;6.40;88.00;;;;;;5094338;28;20388;-77
2021/12/06 03:41:08;;;;;;;35.15;20.27;;;6.40;88.00;;;;;;5093021;28;20460;-78
2021/12/06 03:43:35;;;;;;;34.65;20.20;;;6.30;88.10;;;;;;5094270;28;20046;-78
2021/12/06 03:46:00;;;;;;;33.35;19.02;;;6.30;88.00;;;;;;5092883;28;20475;-78
2021/12/06 03:48:26;;;;;;;35.47;19.27;;;6.30;88.10;;;;;;5092836;28;20027;-79
2021/12/06 03:50:52;;;;;;;38.08;19.50;;;6.30;88.00;;;;;;5094054;28;20028;-79
2021/12/06 03:53:18;;;;;;;35.58;19.10;;;6.40;88.00;;;;;;5094335;28;20032;-79
2021/12/06 03:55:44;;;;;;;31.73;19.33;;;6.40;88.00;;;;;;5092877;28;20024;-79
2021/12/06 03:58:10;;;;;;;34.58;19.80;;;6.30;88.00;;;;;;5092848;28;20516;-79
2021/12/06 04:00:36;;;;;;;33.95;19.25;;;6.30;88.00;;;;;;5093959;28;20134;-78
2021/12/06 04:03:02;;;;;;;35.05;19.95;;;6.30;88.00;;;;;;5092527;28;20392;-78
2021/12/06 04:05:28;;;;;;;32.97;19.75;;;6.40;88.10;;;;;;5093872;28;20036;-78
2021/12/06 04:07:54;;;;;;;32.67;19.05;;;6.30;88.00;;;;;;5092942;28;20385;-79
2021/12/06 04:10:19;;;;;;;38.13;19.42;;;6.30;87.90;;;;;;5092657;28;20020;-79
2021/12/06 04:12:45;;;;;;;34.95;18.08;;;6.30;88.00;;;;;;5092684;28;20021;-79
2021/12/06 04:15:13;;;;;;;34.40;19.40;;;6.30;88.00;;;;;;5092659;28;20016;-78
2021/12/06 04:17:40;;;;;;;34.45;18.83;;;6.30;88.10;;;;;;5092479;28;20081;-78
2021/12/06 04:20:08;;;;;;;37.63;19.20;;;6.30;88.10;;;;;;5092582;28;20119;-77
2021/12/06 04:22:35;;;;;;;31.67;18.73;;;6.30;88.00;;;;;;5093751;28;20024;-78
2021/12/06 04:25:02;;;;;;;34.60;19.52;;;6.30;88.00;;;;;;5092278;28;20020;-78
2021/12/06 04:27:29;;;;;;;33.90;18.60;;;6.20;88.00;;;;;;5092184;28;20028;-78
2021/12/06 04:29:55;;;;;;;34.47;19.00;;;6.20;88.10;;;;;;5093553;28;20020;-78
2021/12/06 04:32:22;;;;;;;35.83;19.83;;;6.20;88.10;;;;;;5093429;28;20106;-78
2021/12/06 04:34:48;;;;;;;31.98;18.65;;;6.20;88.00;;;;;;5092011;28;20027;-77
2021/12/06 04:37:14;;;;;;;32.80;18.08;;;6.20;88.20;;;;;;5093711;28;20522;-77
2021/12/06 04:39:40;;;;;;;33.22;19.10;;;6.20;88.10;;;;;;5093401;28;20024;-78
2021/12/06 04:42:06;;;;;;;32.55;17.92;;;6.20;88.20;;;;;;5092008;28;20404;-78
2021/12/06 04:44:32;;;;;;;34.60;19.30;;;6.20;88.20;;;;;;5093014;28;20068;-77
2021/12/06 04:46:59;;;;;;;35.95;19.83;;;6.30;88.20;;;;;;5093012;28;20024;-78
2021/12/06 04:49:28;;;;;;;32.60;18.15;;;6.30;88.20;;;;;;5093275;28;20387;-78
2021/12/06 04:51:55;;;;;;;37.03;18.88;;;6.30;88.20;;;;;;5091883;28;20396;-79
2021/12/06 04:54:25;;;;;;;32.47;18.42;;;6.30;88.10;;;;;;5091915;28;20047;-78
2021/12/06 05:00:39;;;;;;;32.55;18.95;;;6.30;88.10;;;;;;5093204;28;20542;-79
2021/12/06 05:03:07;;;;;;;32.40;18.05;;;6.30;88.10;;;;;;5091481;28;20392;-78
2021/12/06 05:05:40;;;;;;;33.30;18.23;;;6.30;88.10;;;;;;5093128;28;20031;-78
2021/12/06 05:08:20;;;;;;;35.20;19.40;;;6.20;88.00;;;;;;5092962;28;20039;-78
2021/12/06 05:10:47;;;;;;;33.05;18.33;;;6.20;88.00;;;;;;5092011;28;20130;-79
2021/12/06 05:13:13;;;;;;;35.22;19.33;;;6.20;88.10;;;;;;5092848;28;20028;-77
2021/12/06 05:15:39;;;;;;;36.55;19.77;;;6.10;88.10;;;;;;5091568;28;20381;-78
2021/12/06 05:18:05;;;;;;;34.60;19.50;;;6.10;88.20;;;;;;5092613;28;20027;-78
2021/12/06 05:20:34;;;;;;;36.92;19.45;;;6.00;88.20;;;;;;5095839;28;20085;-78
2021/12/06 05:23:00;;;;;;;35.75;19.92;;;6.00;88.30;;;;;;5097324;28;20528;-78
2021/12/06 05:25:26;;;;;;;37.40;18.73;;;6.00;88.40;;;;;;5097089;28;20052;-78
2021/12/06 05:27:53;;;;;;;37.30;20.20;;;5.90;88.30;;;;;;5097029;28;20035;-78
2021/12/06 05:30:21;;;;;;;35.00;20.35;;;5.90;88.40;;;;;;5097154;28;20016;-78
2021/12/06 05:32:47;;;;;;;38.30;20.50;;;5.90;88.50;;;;;;5095499;28;20587;-78
2021/12/06 05:35:13;;;;;;;37.47;20.00;;;5.80;88.50;;;;;;5096887;28;20028;-78
2021/12/06 05:37:54;;;;;;;40.65;20.80;;;5.70;88.50;;;;;;5096627;28;20035;-78
2021/12/06 05:40:30;;;;;;;35.72;20.02;;;5.70;88.60;;;;;;5096727;28;20024;-79
2021/12/06 05:42:56;;;;;;;37.83;19.98;;;5.70;88.60;;;;;;5096860;28;20028;-78
2021/12/06 05:45:24;;;;;;;38.78;20.45;;;5.60;88.70;;;;;;5095056;28;20031;-78
2021/12/06 05:47:51;;;;;;;39.80;20.88;;;5.70;88.70;;;;;;5096536;28;20028;-79
2021/12/06 05:50:17;;;;;;;34.45;19.58;;;5.70;88.70;;;;;;5096530;28;20024;-78
2021/12/06 05:52:44;;;;;;;34.97;18.98;;;5.70;88.80;;;;;;5095173;28;20114;-79
2021/12/06 05:55:10;;;;;;;34.25;19.55;;;5.70;88.70;;;;;;5096569;28;20025;-78
2021/12/06 05:57:38;;;;;;;34.60;18.90;;;5.60;88.70;;;;;;5095084;28;20020;-78
2021/12/06 06:00:07;;;;;;;34.80;18.00;;;5.60;88.70;;;;;;5096524;28;20020;-78
2021/12/06 06:02:35;;;;;;;35.95;18.85;;;5.60;88.70;;;;;;5095023;28;20139;-78
2021/12/06 06:05:01;;;;;;;34.63;17.45;;;5.60;88.70;;;;;;5096297;28;20052;-77
2021/12/06 06:07:26;;;;;;;31.48;17.77;;;5.60;88.60;;;;;;5094582;28;20051;-78
2021/12/06 06:09:52;;;;;;;34.40;17.80;;;5.60;89.20;;;;;;5095099;28;20027;-78
2021/12/06 06:12:18;;;;;;;32.17;17.35;;;5.70;88.60;;;;;;5095354;28;20020;-77
2021/12/06 06:14:43;;;;;;;33.58;18.02;;;5.70;88.60;;;;;;5096366;28;20383;-78
2021/12/06 06:17:13;;;;;;;33.80;18.95;;;5.70;88.50;;;;;;5096408;28;20028;-78
2021/12/06 06:19:46;;;;;;;37.53;19.23;;;5.80;88.50;;;;;;5094769;28;20028;-78
2021/12/06 06:22:12;;;;;;;32.55;18.40;;;5.80;88.30;;;;;;5095007;28;20384;-78
2021/12/06 06:24:38;;;;;;;31.33;17.48;;;5.80;88.30;;;;;;5094562;28;20020;-77
2021/12/06 06:27:05;;;;;;;35.13;18.05;;;5.80;88.30;;;;;;5094765;28;20024;-77
2021/12/06 06:29:34;;;;;;;32.95;17.77;;;5.80;88.20;;;;;;5095243;28;20020;-78
2021/12/06 06:32:02;;;;;;;30.88;17.48;;;5.80;88.20;;;;;;5095981;28;20023;-78
2021/12/06 06:34:28;;;;;;;32.90;17.90;;;5.80;88.20;;;;;;5094899;28;20166;-78
2021/12/06 06:36:54;;;;;;;30.38;17.05;;;5.80;88.20;;;;;;5095867;28;20048;-78
2021/12/06 06:39:21;;;;;;;32.03;17.25;;;5.80;88.20;;;;;;5094742;28;20044;-78
2021/12/06 06:41:48;;;;;;;30.98;18.02;;;5.80;88.20;;;;;;5094757;28;20020;-78
2021/12/06 06:44:15;;;;;;;29.17;17.05;;;5.80;88.20;;;;;;5096069;28;20059;-78
2021/12/06 06:50:04;;;;;;;30.08;17.55;;;5.90;88.20;;;;;;5096078;28;20027;-79
2021/12/06 06:52:29;;;;;;;36.05;18.85;;;5.80;88.00;;;;;;5095708;28;20020;-77
2021/12/06 06:54:55;;;;;;;33.80;17.23;;;5.90;88.00;;;;;;5095411;28;20024;-79
2021/12/06 06:57:21;;;;;;;31.85;17.42;;;5.90;88.00;;;;;;5095816;28;20024;-79
2021/12/06 06:59:47;;;;;;;29.55;17.05;;;5.90;88.00;;;;;;5094147;28;20035;-78
2021/12/06 07:02:14;;;;;;;28.65;16.30;;;5.90;88.00;;;;;;5094047;28;20023;-80
2021/12/06 07:04:45;;;;;;;24.75;14.57;;;5.90;88.00;;;;;;5094210;28;20039;-78
2021/12/06 07:07:10;;;;;;;27.65;16.00;;;6.00;88.10;;;;;;5093694;28;20036;-78
2021/12/06 07:09:36;;;;;;;28.77;16.10;;;5.90;87.90;;;;;;5093548;28;20476;-78
2021/12/06 07:12:05;;;;;;;28.23;15.30;;;5.90;87.90;;;;;;5093706;28;20021;-78
2021/12/06 07:14:31;;;;;;;33.53;18.73;;;5.90;88.00;;;;;;5094551;28;20016;-78
2021/12/06 07:16:56;;;;;;;35.42;18.80;;;5.90;88.00;;;;;;5094772;28;20031;-79
2021/12/06 07:19:22;;;;;;;37.05;20.83;;;5.90;88.00;;;;;;5093765;28;20024;-78
2021/12/06 07:21:48;;;;;;;32.35;18.45;;;5.90;87.90;;;;;;5094991;28;20332;-80
2021/12/06 07:24:13;;;;;;;32.53;18.33;;;5.90;88.00;;;;;;5094636;28;20077;-78
2021/12/06 07:26:39;;;;;;;32.38;19.23;;;5.90;87.90;;;;;;5093471;28;20020;-78
2021/12/06 07:29:05;;;;;;;40.80;21.17;;;5.90;88.00;;;;;;5094534;28;20032;-79
2021/12/06 07:31:31;;;;;;;40.35;21.45;;;5.80;87.80;;;;;;5094440;28;20369;-80
2021/12/06 07:33:57;;;;;;;40.90;20.25;;;5.80;87.90;;;;;;5095498;28;20060;-81
2021/12/06 07:36:25;;;;;;;37.38;20.90;;;5.70;88.00;;;;;;5095478;28;20016;-82
2021/12/06 07:38:51;;;;;;;38.00;20.33;;;5.70;88.00;;;;;;5095115;28;20031;-81
2021/12/06 07:41:19;;;;;;;34.60;19.55;;;5.70;88.10;;;;;;5094856;28;20075;-79
2021/12/06 07:43:46;;;;;;;34.08;19.30;;;5.70;88.20;;;;;;5094913;28;20034;-80
2021/12/06 07:46:12;;;;;;;31.50;18.27;;;5.70;88.20;;;;;;5094972;28;20024;-79
2021/12/06 07:48:38;;;;;;;26.23;16.88;;;5.80;88.30;;;;;;5094081;28;20031;-80
2021/12/06 07:51:05;;;;;;;26.85;15.07;;;5.80;88.20;;;;;;5097193;28;20090;-80
2021/12/06 07:56:53;;;;;;;26.55;15.65;;;5.80;88.80;;;;;;5097560;28;20119;-75
2021/12/06 07:59:19;;;;;;;26.25;15.05;;;5.70;88.80;;;;;;5092578;28;20139;-76
2021/12/06 08:01:45;;;;;;;27.13;15.65;;;5.70;89.10;;;;;;5092408;28;20038;-75
2021/12/06 08:04:10;;;;;;;26.15;15.88;;;5.60;89.20;;;;;;5092344;28;20020;-75
2021/12/06 08:09:58;;;;;;;22.77;13.90;;;5.60;89.10;;;;;;5085565;28;20055;-74
2021/12/06 08:12:25;;;;;;;26.38;15.88;;;5.50;89.00;;;;;;5092220;28;20017;-75
2021/12/06 08:14:50;;;;;;;25.92;15.77;;;5.50;89.00;;;;;;5092319;28;20043;-75
2021/12/06 08:17:19;;;;;;;28.38;17.55;;;5.50;89.00;;;;;;5093718;28;20031;-75
2021/12/06 08:19:46;;;;;;;31.75;18.05;;;5.50;89.00;;;;;;5092360;28;20051;-75
2021/12/06 08:22:18;;;;;;;28.80;16.35;;;5.50;88.90;;;;;;5092303;28;20024;-79
2021/12/06 08:24:43;;;;;;;29.70;15.93;;;5.60;89.30;;;;;;5092808;28;20449;-80
2021/12/06 08:27:09;;;;;;;31.38;16.70;;;5.60;89.60;;;;;;5092451;28;20123;-79
2021/12/06 08:29:35;;;;;;;29.42;15.88;;;5.60;89.20;;;;;;5092857;28;20384;-81
2021/12/06 08:32:50;;;;;;;31.00;16.00;;;5.60;89.10;;;;;;5092316;28;20027;-79
2021/12/06 08:35:16;;;;;;;32.88;16.05;;;5.60;89.00;;;;;;5093540;28;20036;-80
2021/12/06 08:37:43;;;;;;;28.75;16.30;;;5.60;89.00;;;;;;5092589;28;20058;-79
2021/12/06 08:40:10;;;;;;;28.63;15.70;;;5.50;89.70;;;;;;5091927;28;20020;-77
2021/12/06 08:42:36;;;;;;;31.00;16.33;;;5.50;89.90;;;;;;5092043;28;20047;-77
2021/12/06 08:45:04;;;;;;;28.90;17.08;;;5.50;90.00;;;;;;5091685;28;20020;-78
2021/12/06 08:47:30;;;;;;;28.00;16.33;;;5.50;90.00;;;;;;5091872;28;20047;-79
2021/12/06 08:49:56;;;;;;;28.92;15.82;;;5.50;90.10;;;;;;5074997;28;20036;-78
2021/12/06 08:52:22;;;;;;;28.75;16.23;;;5.40;90.00;;;;;;5091422;28;20085;-79
2021/12/06 08:54:51;;;;;;;27.13;16.08;;;5.50;89.90;;;;;;5091777;28;20055;-80
2021/12/06 08:57:17;;;;;;;26.48;16.15;;;5.50;89.70;;;;;;5091946;28;20028;-77
2021/12/06 08:59:43;;;;;;;26.20;15.70;;;5.50;89.60;;;;;;5093267;28;20051;-78
2021/12/06 09:02:09;;;;;;;27.42;16.30;;;5.60;89.40;;;;;;5091913;28;20032;-78
2021/12/06 09:04:38;;;;;;;24.63;15.00;;;5.60;89.20;;;;;;5093226;28;20073;-78
2021/12/06 09:07:11;;;;;;;27.50;16.70;;;5.60;89.10;;;;;;5091706;28;20061;-78
2021/12/06 09:09:45;;;;;;;26.05;15.43;;;5.60;89.00;;;;;;5093559;28;20032;-80
2021/12/06 09:12:22;;;;;;;29.05;15.95;;;5.70;88.80;;;;;;5092191;28;20035;-80
2021/12/06 09:14:49;;;;;;;24.83;15.95;;;5.70;88.70;;;;;;5093115;28;20036;-79
2021/12/06 09:17:17;;;;;;;25.45;15.80;;;5.70;88.50;;;;;;5091911;28;20047;-80
2021/12/06 09:23:06;;;;;;;25.10;16.02;;;5.70;88.20;;;;;;5093891;28;20112;-83
2021/12/06 09:28:55;;;;;;;27.52;17.42;;;5.60;88.20;;;;;;5094415;28;20407;-81
2021/12/06 09:31:21;;;;;;;24.67;15.77;;;5.60;88.20;;;;;;5095241;28;20024;-83
2021/12/06 09:33:47;;;;;;;27.90;16.35;;;5.60;88.10;;;;;;5091855;28;20028;-80
2021/12/06 09:36:14;;;;;;;28.08;17.38;;;5.60;88.00;;;;;;5091396;28;20423;-75
2021/12/06 09:42:03;;;;;;;24.33;15.43;;;5.60;87.90;;;;;;5093058;28;20034;-75
2021/12/06 09:47:54;;;;;;;25.50;15.02;;;5.50;87.80;;;;;;5092717;28;20051;-75
2021/12/06 09:50:27;;;;;;;24.17;14.98;;;5.50;87.90;;;;;;5090332;28;20169;-76
2021/12/06 09:52:56;;;;;;;24.15;15.45;;;5.60;88.00;;;;;;5073279;28;20119;-75
2021/12/06 09:55:24;;;;;;;23.73;14.82;;;5.60;87.90;;;;;;5073378;28;20032;-75
2021/12/06 09:57:50;;;;;;;26.58;15.43;;;5.60;87.90;;;;;;5073251;28;20038;-75
2021/12/06 10:00:22;;;;;;;27.00;15.48;;;5.60;87.80;;;;;;5073262;28;20040;-75
2021/12/06 10:02:49;;;;;;;27.30;15.40;;;5.60;87.80;;;;;;5073222;28;20124;-75
2021/12/06 10:05:16;;;;;;;25.17;15.50;;;5.60;87.70;;;;;;5074339;28;20083;-75
2021/12/06 10:11:06;;;;;;;27.55;15.80;;;5.50;87.80;;;;;;5076982;28;20047;-76
2021/12/06 10:16:55;;;;;;;27.10;16.10;;;5.50;87.90;;;;;;5094343;28;20034;-76
2021/12/06 10:19:21;;;;;;;28.90;15.95;;;5.60;88.00;;;;;;5114111;28;20040;-75
2021/12/06 10:21:48;;;;;;;30.77;17.02;;;5.60;87.90;;;;;;5097441;28;20085;-76
2021/12/06 10:24:20;;;;;;;31.67;16.52;;;5.50;87.90;;;;;;5096988;28;20039;-77
2021/12/06 10:26:46;;;;;;;27.73;16.15;;;5.50;88.00;;;;;;5096993;28;20050;-76
2021/12/06 10:29:20;;;;;;;25.83;15.98;;;5.60;88.10;;;;;;5096827;28;20044;-76
2021/12/06 10:31:46;;;;;;;;;;;5.60;88.10;;;;;;5097245;28;20027;-76
2021/12/06 10:37:47;;;;;;;24.83;16.02;;;5.60;88.10;;;;;;5114387;28;20077;-76
2021/12/06 10:43:37;;;;;;;24.92;14.45;;;5.70;87.80;;;;;;5113885;28;20049;-76
2021/12/06 10:46:07;;;;;;;30.58;16.73;;;5.70;87.80;;;;;;5096510;28;20063;-77
2021/12/06 10:48:39;;;;;;;28.67;15.52;;;5.70;87.90;;;;;;5096350;28;20394;-76
2021/12/06 10:54:27;;;;;;;30.75;16.98;;;5.70;88.00;;;;;;5093382;28;20106;-76
2021/12/06 10:56:55;;;;;;;32.83;18.02;;;5.70;88.00;;;;;;5093319;28;20024;-77
2021/12/06 10:59:27;;;;;;;27.48;16.90;;;5.80;88.10;;;;;;5092877;28;20190;-76
2021/12/06 11:01:58;;;;;;;33.47;16.92;;;5.70;88.00;;;;;;5075992;28;20093;-75
2021/12/06 11:04:26;;;;;;;31.70;17.77;;;5.80;88.00;;;;;;5076798;28;20164;-77
2021/12/06 11:07:01;;;;;;;29.70;16.75;;;5.80;88.00;;;;;;5092892;28;20023;-78
2021/12/06 11:09:29;;;;;;;27.45;16.77;;;5.80;88.00;;;;;;5094404;28;20033;-78
2021/12/06 11:12:01;;;;;;;29.30;16.77;;;5.90;88.00;;;;;;5075829;28;20102;-78
2021/12/06 11:14:30;;;;;;;25.30;16.67;;;6.00;88.00;;;;;;5075822;28;20028;-78
2021/12/06 11:17:00;;;;;;;26.85;17.00;;;6.00;88.00;;;;;;5092384;28;20028;-80
2021/12/06 11:19:28;;;;;;;24.73;15.88;;;6.00;87.90;;;;;;5075747;28;20549;-79
2021/12/06 11:22:11;;;;;;;24.27;16.02;;;6.10;87.90;;;;;;5092584;28;20028;-79
2021/12/06 11:24:41;;;;;;;24.55;16.40;;;6.10;87.80;;;;;;5093179;28;20457;-80
2021/12/06 11:27:14;;;;;;;22.15;15.38;;;6.10;87.70;;;;;;5093190;28;20432;-81
2021/12/06 11:29:50;;;;;;;22.58;15.00;;;6.10;87.60;;;;;;5093178;28;20096;-80
2021/12/06 11:32:35;;;;;;;24.65;15.68;;;6.10;87.70;;;;;;5093183;28;20032;-79
2021/12/06 11:35:08;;;;;;;22.58;15.18;;;6.10;87.60;;;;;;5091722;28;20024;-78
2021/12/06 11:37:37;;;;;;;23.40;14.85;;;6.10;87.50;;;;;;5094472;28;20476;-80
2021/12/06 11:40:17;;;;;;;24.42;15.85;;;6.20;87.50;;;;;;5093165;28;20404;-79
2021/12/06 11:43:32;;;;;;;23.90;15.10;;;6.20;87.30;;;;;;5092957;28;20024;-77
2021/12/06 11:45:58;;;;;;;28.02;15.85;;;6.20;87.40;;;;;;5094103;28;20102;-77
2021/12/06 11:48:30;;;;;;;28.33;16.70;;;6.20;87.40;;;;;;5094201;28;20111;-78
2021/12/06 11:51:15;;;;;;;28.70;16.38;;;6.20;87.30;;;;;;5092926;28;20032;-77
2021/12/06 11:53:52;;;;;;;28.88;15.63;;;6.30;87.30;;;;;;5090057;28;20028;-79
2021/12/06 11:56:32;;;;;;;25.70;14.85;;;6.30;87.30;;;;;;5092697;28;20024;-77
2021/12/06 11:59:08;;;;;;;27.50;15.23;;;6.30;87.20;;;;;;5094131;28;20061;-80
2021/12/06 12:05:18;;;;;;;27.23;14.73;;;6.30;86.90;;;;;;5094327;28;20027;-77
2021/12/06 12:07:57;;;;;;;30.17;15.25;;;6.20;86.90;;;;;;5092575;28;20027;-78
2021/12/06 12:10:50;;;;;;;28.27;15.13;;;6.10;86.90;;;;;;5093886;28;20052;-80
2021/12/06 12:13:30;;;;;;;30.17;15.82;;;6.10;87.00;;;;;;5092243;28;20040;-78
2021/12/06 12:16:03;;;;;;;30.50;17.08;;;6.10;87.00;;;;;;5092630;28;20055;-79
2021/12/06 12:18:30;;;;;;;27.67;15.13;;;6.00;87.00;;;;;;5094128;28;20028;-78
2021/12/06 12:20:57;;;;;;;30.25;15.85;;;6.00;87.10;;;;;;5093724;28;20032;-78
2021/12/06 12:23:26;;;;;;;29.27;15.43;;;6.00;87.10;;;;;;5092400;28;20020;-77
2021/12/06 12:26:05;;;;;;;26.77;14.68;;;6.00;87.10;;;;;;5092658;28;20027;-78
2021/12/06 12:28:41;;;;;;;29.30;14.27;;;6.00;87.10;;;;;;5091358;28;20039;-78
2021/12/06 12:31:11;;;;;;;22.75;13.18;;;6.00;87.10;;;;;;5093585;28;20016;-78
2021/12/06 12:33:37;;;;;;;27.60;13.70;;;6.00;86.90;;;;;;5092095;28;20054;-77
2021/12/06 12:36:16;;;;;;;25.70;14.45;;;6.00;86.90;;;;;;5092112;28;20028;-78
2021/12/06 12:38:48;;;;;;;23.88;13.05;;;6.00;87.00;;;;;;5092105;28;20543;-78
2021/12/06 12:41:18;;;;;;;21.50;12.50;;;6.00;86.80;;;;;;5093398;28;20054;-78
2021/12/06 12:47:14;;;;;;;21.08;12.07;;;6.10;86.90;;;;;;5093305;28;20031;-78
2021/12/06 12:49:44;;;;;;;21.20;12.45;;;6.00;86.70;;;;;;5092981;28;20491;-79
2021/12/06 12:52:10;;;;;;;18.30;11.52;;;6.10;86.70;;;;;;5093349;28;20028;-78
2021/12/06 12:54:36;;;;;;;18.05;11.68;;;6.10;86.60;;;;;;5092677;28;20036;-79
2021/12/06 12:57:12;;;;;;;18.83;11.30;;;6.10;86.60;;;;;;5091915;28;20051;-78
2021/12/06 12:59:56;;;;;;;19.67;11.50;;;6.10;86.60;;;;;;5091796;28;20020;-78
2021/12/06 13:02:30;;;;;;;19.02;11.65;;;6.10;87.00;;;;;;5093080;28;20405;-78
2021/12/06 13:05:33;;;;;;;18.55;11.38;;;6.10;87.00;;;;;;5093145;28;20052;-77
2021/12/06 13:08:02;;;;;;;20.38;12.50;;;6.10;86.30;;;;;;5091628;28;20502;-77
2021/12/06 13:10:53;;;;;;;21.55;13.00;;;6.10;86.20;;;;;;5091765;28;20111;-78
2021/12/06 13:13:33;;;;;;;24.95;13.80;;;6.10;86.10;;;;;;5091667;28;20035;-78
2021/12/06 13:16:08;;;;;;;23.27;14.20;;;6.00;86.10;;;;;;5091617;28;20028;-77
2021/12/06 13:19:00;;;;;;;21.73;12.63;;;6.00;86.20;;;;;;5091892;28;20511;-78
2021/12/06 13:22:12;;;;;;;21.65;13.15;;;5.90;86.10;;;;;;5091695;28;20123;-79
2021/12/06 13:24:44;;;;;;;22.40;13.55;;;5.90;86.20;;;;;;5091856;28;20113;-78
2021/12/06 13:27:21;;;;;;;21.83;13.15;;;5.80;86.20;;;;;;5091455;28;20028;-79
2021/12/06 13:30:07;;;;;;;24.20;14.55;;;5.80;86.30;;;;;;5092782;28;20108;-78
2021/12/06 13:32:44;;;;;;;24.63;14.15;;;5.80;86.30;;;;;;5091511;28;20134;-78
2021/12/06 13:35:24;;;;;;;23.52;13.90;;;5.80;86.50;;;;;;5091348;28;20493;-77
2021/12/06 13:38:02;;;;;;;21.40;13.15;;;5.90;86.60;;;;;;5091380;28;20085;-77
2021/12/06 13:40:29;;;;;;;19.92;12.30;;;5.80;86.60;;;;;;5094508;28;20032;-76
2021/12/06 13:42:55;;;;;;;21.02;12.90;;;5.90;86.60;;;;;;5095557;28;20043;-77
2021/12/06 13:45:26;;;;;;;19.15;12.48;;;5.90;86.60;;;;;;5095301;28;20396;-78
2021/12/06 13:48:24;;;;;;;19.95;12.35;;;6.00;86.60;;;;;;5096672;28;20102;-76
2021/12/06 13:50:52;;;;;;;19.98;12.85;;;6.00;86.40;;;;;;5092836;28;20116;-77
2021/12/06 13:56:43;;;;;;;17.00;11.52;;;5.90;85.90;;;;;;5096796;28;20054;-77
2021/12/06 13:59:11;;;;;;;19.85;13.13;;;5.90;86.00;;;;;;5095226;28;20064;-77